sensor_id;sensor_type;location;lat;lon;timestamp;P1;durP1;ratioP1;P2;durP2;ratioP2
6376;SDS011;3221;48.858;10.128;2022-12-07T00:01:23;13.50;;;10.73;;
6376;SDS011;3221;48.858;10.128;2022-12-07T00:03:55;13.83;;;10.50;;
6376;SDS011;3221;48.858;10.128;2022-12-07T00:06:32;12.97;;;10.33;;
6376;SDS011;3221;48.858;10.128;2022-12-07T00:09:00;12.57;;;9.90;;
6376;SDS011;3221;48.858;10.128;2022-12-07T00:11:28;12.10;;;9.47;;
6376;SDS011;3221;48.858;10.128;2022-12-07T00:13:56;12.70;;;10.20;;
6376;SDS011;3221;48.858;10.128;2022-12-07T00:16:26;12.10;;;9.83;;
6376;SDS011;3221;48.858;10.128;2022-12-07T00:18:54;13.23;;;10.27;;
6376;SDS011;3221;48.858;10.128;2022-12-07T00:21:23;14.03;;;10.27;;
6376;SDS011;3221;48.858;10.128;2022-12-07T00:23:51;12.10;;;9.67;;
6376;SDS011;3221;48.858;10.128;2022-12-07T00:26:24;12.07;;;9.80;;
6376;SDS011;3221;48.858;10.128;2022-12-07T00:28:59;14.27;;;10.67;;
6376;SDS011;3221;48.858;10.128;2022-12-07T00:31:30;14.93;;;10.10;;
6376;SDS011;3221;48.858;10.128;2022-12-07T00:34:00;12.70;;;9.73;;
6376;SDS011;3221;48.858;10.128;2022-12-07T00:36:27;11.63;;;9.63;;
6376;SDS011;3221;48.858;10.128;2022-12-07T00:38:54;12.07;;;9.27;;
6376;SDS011;3221;48.858;10.128;2022-12-07T00:41:24;12.83;;;9.97;;
6376;SDS011;3221;48.858;10.128;2022-12-07T00:43:52;12.83;;;8.93;;
6376;SDS011;3221;48.858;10.128;2022-12-07T00:46:19;11.13;;;9.67;;
6376;SDS011;3221;48.858;10.128;2022-12-07T00:48:47;13.37;;;9.87;;
6376;SDS011;3221;48.858;10.128;2022-12-07T00:51:16;11.20;;;9.90;;
6376;SDS011;3221;48.858;10.128;2022-12-07T00:53:44;12.03;;;9.40;;
6376;SDS011;3221;48.858;10.128;2022-12-07T00:56:12;10.37;;;8.83;;
6376;SDS011;3221;48.858;10.128;2022-12-07T00:58:48;11.57;;;9.00;;
6376;SDS011;3221;48.858;10.128;2022-12-07T01:01:23;11.97;;;9.93;;
6376;SDS011;3221;48.858;10.128;2022-12-07T01:03:51;12.37;;;9.90;;
6376;SDS011;3221;48.858;10.128;2022-12-07T01:06:19;11.57;;;9.07;;
6376;SDS011;3221;48.858;10.128;2022-12-07T01:08:47;13.23;;;9.70;;
6376;SDS011;3221;48.858;10.128;2022-12-07T01:11:15;11.93;;;9.57;;
6376;SDS011;3221;48.858;10.128;2022-12-07T01:13:44;12.23;;;9.97;;
6376;SDS011;3221;48.858;10.128;2022-12-07T01:16:13;11.83;;;9.70;;
6376;SDS011;3221;48.858;10.128;2022-12-07T01:18:41;11.37;;;9.37;;
6376;SDS011;3221;48.858;10.128;2022-12-07T01:21:13;10.50;;;9.00;;
6376;SDS011;3221;48.858;10.128;2022-12-07T01:23:42;13.03;;;9.80;;
6376;SDS011;3221;48.858;10.128;2022-12-07T01:26:10;12.33;;;9.23;;
6376;SDS011;3221;48.858;10.128;2022-12-07T01:28:39;12.10;;;9.70;;
6376;SDS011;3221;48.858;10.128;2022-12-07T01:31:10;11.73;;;9.37;;
6376;SDS011;3221;48.858;10.128;2022-12-07T01:33:41;12.20;;;9.83;;
6376;SDS011;3221;48.858;10.128;2022-12-07T01:36:22;12.40;;;9.17;;
6376;SDS011;3221;48.858;10.128;2022-12-07T01:38:51;12.03;;;9.57;;
6376;SDS011;3221;48.858;10.128;2022-12-07T01:41:24;12.27;;;9.70;;
6376;SDS011;3221;48.858;10.128;2022-12-07T01:46:33;12.93;;;9.70;;
6376;SDS011;3221;48.858;10.128;2022-12-07T01:49:01;12.43;;;9.33;;
6376;SDS011;3221;48.858;10.128;2022-12-07T01:51:32;12.07;;;9.87;;
6376;SDS011;3221;48.858;10.128;2022-12-07T01:53:59;12.67;;;10.10;;
6376;SDS011;3221;48.858;10.128;2022-12-07T01:56:27;12.07;;;9.67;;
6376;SDS011;3221;48.858;10.128;2022-12-07T01:58:55;11.57;;;9.37;;
6376;SDS011;3221;48.858;10.128;2022-12-07T02:01:24;12.40;;;9.60;;
6376;SDS011;3221;48.858;10.128;2022-12-07T02:03:51;12.40;;;9.40;;
6376;SDS011;3221;48.858;10.128;2022-12-07T02:06:20;12.10;;;9.57;;
6376;SDS011;3221;48.858;10.128;2022-12-07T02:08:49;11.30;;;9.03;;
6376;SDS011;3221;48.858;10.128;2022-12-07T02:11:16;12.37;;;9.60;;
6376;SDS011;3221;48.858;10.128;2022-12-07T02:13:44;11.97;;;9.20;;
6376;SDS011;3221;48.858;10.128;2022-12-07T02:25:03;11.40;;;8.80;;
6376;SDS011;3221;48.858;10.128;2022-12-07T02:28:07;13.07;;;9.50;;
6376;SDS011;3221;48.858;10.128;2022-12-07T02:30:48;12.27;;;9.70;;
6376;SDS011;3221;48.858;10.128;2022-12-07T02:33:19;12.10;;;9.67;;
6376;SDS011;3221;48.858;10.128;2022-12-07T02:38:29;12.27;;;9.47;;
6376;SDS011;3221;48.858;10.128;2022-12-07T02:41:06;12.57;;;9.83;;
6376;SDS011;3221;48.858;10.128;2022-12-07T02:43:55;13.10;;;9.80;;
6376;SDS011;3221;48.858;10.128;2022-12-07T02:46:27;12.40;;;9.73;;
6376;SDS011;3221;48.858;10.128;2022-12-07T02:48:58;13.20;;;10.23;;
6376;SDS011;3221;48.858;10.128;2022-12-07T02:51:29;13.20;;;9.80;;
6376;SDS011;3221;48.858;10.128;2022-12-07T02:53:56;11.93;;;9.60;;
6376;SDS011;3221;48.858;10.128;2022-12-07T02:56:37;14.13;;;10.47;;
6376;SDS011;3221;48.858;10.128;2022-12-07T02:59:14;14.37;;;10.37;;
6376;SDS011;3221;48.858;10.128;2022-12-07T03:10:50;13.43;;;10.10;;
6376;SDS011;3221;48.858;10.128;2022-12-07T03:15:33;13.70;;;10.50;;
6376;SDS011;3221;48.858;10.128;2022-12-07T03:18:21;14.33;;;10.47;;
6376;SDS011;3221;48.858;10.128;2022-12-07T03:20:50;13.40;;;10.37;;
6376;SDS011;3221;48.858;10.128;2022-12-07T03:23:21;13.97;;;10.53;;
6376;SDS011;3221;48.858;10.128;2022-12-07T03:25:52;14.73;;;11.07;;
6376;SDS011;3221;48.858;10.128;2022-12-07T03:28:27;15.30;;;11.70;;
6376;SDS011;3221;48.858;10.128;2022-12-07T03:31:17;15.27;;;11.00;;
6376;SDS011;3221;48.858;10.128;2022-12-07T03:39:36;15.80;;;11.50;;
6376;SDS011;3221;48.858;10.128;2022-12-07T03:42:11;14.67;;;11.33;;
6376;SDS011;3221;48.858;10.128;2022-12-07T03:44:38;15.23;;;11.23;;
6376;SDS011;3221;48.858;10.128;2022-12-07T03:47:09;14.23;;;10.60;;
6376;SDS011;3221;48.858;10.128;2022-12-07T03:49:53;15.43;;;11.33;;
6376;SDS011;3221;48.858;10.128;2022-12-07T03:52:33;14.03;;;11.03;;
6376;SDS011;3221;48.858;10.128;2022-12-07T03:55:06;14.53;;;10.57;;
6376;SDS011;3221;48.858;10.128;2022-12-07T03:57:35;15.33;;;11.13;;
6376;SDS011;3221;48.858;10.128;2022-12-07T04:00:04;16.67;;;11.90;;
6376;SDS011;3221;48.858;10.128;2022-12-07T04:02:37;14.47;;;10.77;;
6376;SDS011;3221;48.858;10.128;2022-12-07T04:05:04;16.83;;;12.10;;
6376;SDS011;3221;48.858;10.128;2022-12-07T04:07:32;16.00;;;11.83;;
6376;SDS011;3221;48.858;10.128;2022-12-07T04:09:59;16.17;;;11.63;;
6376;SDS011;3221;48.858;10.128;2022-12-07T04:12:26;17.23;;;12.00;;
6376;SDS011;3221;48.858;10.128;2022-12-07T04:14:53;16.73;;;11.77;;
6376;SDS011;3221;48.858;10.128;2022-12-07T04:17:20;19.03;;;12.33;;
6376;SDS011;3221;48.858;10.128;2022-12-07T04:19:47;15.80;;;11.50;;
6376;SDS011;3221;48.858;10.128;2022-12-07T04:22:14;17.00;;;11.97;;
6376;SDS011;3221;48.858;10.128;2022-12-07T04:24:41;18.27;;;12.50;;
6376;SDS011;3221;48.858;10.128;2022-12-07T04:27:07;16.97;;;12.43;;
6376;SDS011;3221;48.858;10.128;2022-12-07T04:29:34;17.27;;;12.47;;
6376;SDS011;3221;48.858;10.128;2022-12-07T04:32:01;17.17;;;12.33;;
6376;SDS011;3221;48.858;10.128;2022-12-07T04:34:28;18.63;;;12.57;;
6376;SDS011;3221;48.858;10.128;2022-12-07T04:36:55;18.10;;;12.30;;
6376;SDS011;3221;48.858;10.128;2022-12-07T04:39:23;17.83;;;11.83;;
6376;SDS011;3221;48.858;10.128;2022-12-07T04:41:54;17.63;;;12.40;;
6376;SDS011;3221;48.858;10.128;2022-12-07T04:44:22;16.20;;;12.07;;
6376;SDS011;3221;48.858;10.128;2022-12-07T04:46:50;19.53;;;12.93;;
6376;SDS011;3221;48.858;10.128;2022-12-07T04:49:17;16.57;;;11.60;;
6376;SDS011;3221;48.858;10.128;2022-12-07T04:51:45;18.53;;;12.60;;
6376;SDS011;3221;48.858;10.128;2022-12-07T04:54:14;17.07;;;12.03;;
6376;SDS011;3221;48.858;10.128;2022-12-07T04:56:41;18.27;;;12.63;;
6376;SDS011;3221;48.858;10.128;2022-12-07T04:59:09;17.67;;;12.67;;
6376;SDS011;3221;48.858;10.128;2022-12-07T05:01:37;18.03;;;13.07;;
6376;SDS011;3221;48.858;10.128;2022-12-07T05:04:04;18.63;;;12.27;;
6376;SDS011;3221;48.858;10.128;2022-12-07T05:06:32;16.87;;;12.27;;
6376;SDS011;3221;48.858;10.128;2022-12-07T05:08:59;18.57;;;12.80;;
6376;SDS011;3221;48.858;10.128;2022-12-07T05:11:27;18.93;;;12.47;;
6376;SDS011;3221;48.858;10.128;2022-12-07T05:14:07;15.53;;;11.57;;
6376;SDS011;3221;48.858;10.128;2022-12-07T05:16:34;17.80;;;12.30;;
6376;SDS011;3221;48.858;10.128;2022-12-07T05:19:01;17.40;;;12.93;;
6376;SDS011;3221;48.858;10.128;2022-12-07T05:21:29;16.67;;;12.00;;
6376;SDS011;3221;48.858;10.128;2022-12-07T05:23:56;16.03;;;11.93;;
6376;SDS011;3221;48.858;10.128;2022-12-07T05:26:23;18.00;;;12.80;;
6376;SDS011;3221;48.858;10.128;2022-12-07T05:28:50;16.30;;;12.20;;
6376;SDS011;3221;48.858;10.128;2022-12-07T05:31:21;17.40;;;11.77;;
6376;SDS011;3221;48.858;10.128;2022-12-07T05:33:49;17.70;;;12.10;;
6376;SDS011;3221;48.858;10.128;2022-12-07T05:36:15;18.23;;;12.43;;
6376;SDS011;3221;48.858;10.128;2022-12-07T05:38:42;17.47;;;11.87;;
6376;SDS011;3221;48.858;10.128;2022-12-07T05:41:11;15.63;;;11.10;;
6376;SDS011;3221;48.858;10.128;2022-12-07T05:44:04;18.37;;;12.53;;
6376;SDS011;3221;48.858;10.128;2022-12-07T05:46:31;19.87;;;12.97;;
6376;SDS011;3221;48.858;10.128;2022-12-07T05:48:59;30.90;;;17.63;;
6376;SDS011;3221;48.858;10.128;2022-12-07T05:51:26;21.30;;;14.20;;
6376;SDS011;3221;48.858;10.128;2022-12-07T05:53:53;23.50;;;14.63;;
6376;SDS011;3221;48.858;10.128;2022-12-07T05:56:20;21.23;;;13.87;;
6376;SDS011;3221;48.858;10.128;2022-12-07T05:58:47;20.27;;;13.23;;
6376;SDS011;3221;48.858;10.128;2022-12-07T06:01:32;18.90;;;12.30;;
6376;SDS011;3221;48.858;10.128;2022-12-07T06:03:59;25.17;;;15.03;;
6376;SDS011;3221;48.858;10.128;2022-12-07T06:06:26;22.83;;;14.23;;
6376;SDS011;3221;48.858;10.128;2022-12-07T06:08:52;20.07;;;13.70;;
6376;SDS011;3221;48.858;10.128;2022-12-07T06:11:19;20.20;;;12.90;;
6376;SDS011;3221;48.858;10.128;2022-12-07T06:14:18;18.77;;;12.03;;
6376;SDS011;3221;48.858;10.128;2022-12-07T06:16:45;17.60;;;11.87;;
6376;SDS011;3221;48.858;10.128;2022-12-07T06:19:12;17.23;;;11.90;;
6376;SDS011;3221;48.858;10.128;2022-12-07T06:21:39;17.70;;;12.30;;
6376;SDS011;3221;48.858;10.128;2022-12-07T06:24:06;16.97;;;12.13;;
6376;SDS011;3221;48.858;10.128;2022-12-07T06:26:33;21.83;;;14.00;;
6376;SDS011;3221;48.858;10.128;2022-12-07T06:29:00;20.77;;;14.83;;
6376;SDS011;3221;48.858;10.128;2022-12-07T06:31:27;24.13;;;16.20;;
6376;SDS011;3221;48.858;10.128;2022-12-07T06:33:58;25.57;;;16.20;;
6376;SDS011;3221;48.858;10.128;2022-12-07T06:36:29;22.60;;;15.47;;
6376;SDS011;3221;48.858;10.128;2022-12-07T06:38:56;22.97;;;15.03;;
6376;SDS011;3221;48.858;10.128;2022-12-07T06:41:23;22.10;;;15.40;;
6376;SDS011;3221;48.858;10.128;2022-12-07T06:43:50;22.30;;;15.00;;
6376;SDS011;3221;48.858;10.128;2022-12-07T06:46:21;20.03;;;14.03;;
6376;SDS011;3221;48.858;10.128;2022-12-07T06:48:49;19.87;;;13.43;;
6376;SDS011;3221;48.858;10.128;2022-12-07T06:51:16;21.30;;;13.87;;
6376;SDS011;3221;48.858;10.128;2022-12-07T06:53:43;20.07;;;13.97;;
6376;SDS011;3221;48.858;10.128;2022-12-07T06:56:09;20.23;;;13.43;;
6376;SDS011;3221;48.858;10.128;2022-12-07T06:58:36;20.33;;;13.93;;
6376;SDS011;3221;48.858;10.128;2022-12-07T07:01:08;18.73;;;12.87;;
6376;SDS011;3221;48.858;10.128;2022-12-07T07:03:36;18.67;;;13.03;;
6376;SDS011;3221;48.858;10.128;2022-12-07T07:06:04;19.80;;;13.70;;
6376;SDS011;3221;48.858;10.128;2022-12-07T07:08:31;19.80;;;13.77;;
6376;SDS011;3221;48.858;10.128;2022-12-07T07:10:58;20.93;;;13.90;;
6376;SDS011;3221;48.858;10.128;2022-12-07T07:13:25;20.83;;;13.67;;
6376;SDS011;3221;48.858;10.128;2022-12-07T07:15:52;21.70;;;13.13;;
6376;SDS011;3221;48.858;10.128;2022-12-07T07:18:19;20.17;;;13.37;;
6376;SDS011;3221;48.858;10.128;2022-12-07T07:20:46;19.13;;;13.13;;
6376;SDS011;3221;48.858;10.128;2022-12-07T07:23:13;22.00;;;14.17;;
6376;SDS011;3221;48.858;10.128;2022-12-07T07:25:40;20.60;;;13.63;;
6376;SDS011;3221;48.858;10.128;2022-12-07T07:28:06;21.33;;;13.47;;
6376;SDS011;3221;48.858;10.128;2022-12-07T07:30:33;20.83;;;13.60;;
6376;SDS011;3221;48.858;10.128;2022-12-07T07:33:00;19.17;;;13.30;;
6376;SDS011;3221;48.858;10.128;2022-12-07T07:35:29;20.67;;;13.37;;
6376;SDS011;3221;48.858;10.128;2022-12-07T07:37:58;18.93;;;13.57;;
6376;SDS011;3221;48.858;10.128;2022-12-07T07:40:25;22.87;;;14.77;;
6376;SDS011;3221;48.858;10.128;2022-12-07T07:42:52;20.97;;;13.50;;
6376;SDS011;3221;48.858;10.128;2022-12-07T07:45:20;19.53;;;13.87;;
6376;SDS011;3221;48.858;10.128;2022-12-07T07:47:49;22.07;;;14.30;;
6376;SDS011;3221;48.858;10.128;2022-12-07T07:50:16;22.57;;;14.87;;
6376;SDS011;3221;48.858;10.128;2022-12-07T07:52:43;23.27;;;14.70;;
6376;SDS011;3221;48.858;10.128;2022-12-07T07:55:10;23.23;;;13.90;;
6376;SDS011;3221;48.858;10.128;2022-12-07T07:57:38;21.77;;;13.90;;
6376;SDS011;3221;48.858;10.128;2022-12-07T08:00:09;21.87;;;14.27;;
6376;SDS011;3221;48.858;10.128;2022-12-07T08:02:40;21.30;;;13.67;;
6376;SDS011;3221;48.858;10.128;2022-12-07T08:05:10;22.77;;;13.97;;
6376;SDS011;3221;48.858;10.128;2022-12-07T08:07:38;21.23;;;13.50;;
6376;SDS011;3221;48.858;10.128;2022-12-07T08:10:05;21.40;;;13.67;;
6376;SDS011;3221;48.858;10.128;2022-12-07T08:12:35;20.63;;;13.27;;
6376;SDS011;3221;48.858;10.128;2022-12-07T08:15:03;20.67;;;13.57;;
6376;SDS011;3221;48.858;10.128;2022-12-07T08:17:31;19.40;;;12.90;;
6376;SDS011;3221;48.858;10.128;2022-12-07T08:19:59;17.93;;;12.53;;
6376;SDS011;3221;48.858;10.128;2022-12-07T08:22:26;18.27;;;11.93;;
6376;SDS011;3221;48.858;10.128;2022-12-07T08:24:53;18.30;;;12.10;;
6376;SDS011;3221;48.858;10.128;2022-12-07T08:27:20;19.83;;;12.67;;
6376;SDS011;3221;48.858;10.128;2022-12-07T08:29:47;19.03;;;12.50;;
6376;SDS011;3221;48.858;10.128;2022-12-07T08:32:13;18.10;;;12.90;;
6376;SDS011;3221;48.858;10.128;2022-12-07T08:34:40;17.90;;;12.17;;
6376;SDS011;3221;48.858;10.128;2022-12-07T08:37:07;17.87;;;12.00;;
6376;SDS011;3221;48.858;10.128;2022-12-07T08:39:34;19.33;;;12.47;;
6376;SDS011;3221;48.858;10.128;2022-12-07T08:42:01;18.07;;;12.00;;
6376;SDS011;3221;48.858;10.128;2022-12-07T08:44:28;18.33;;;12.33;;
6376;SDS011;3221;48.858;10.128;2022-12-07T08:46:58;16.43;;;11.47;;
6376;SDS011;3221;48.858;10.128;2022-12-07T08:49:35;17.37;;;11.97;;
6376;SDS011;3221;48.858;10.128;2022-12-07T08:52:05;17.27;;;11.83;;
6376;SDS011;3221;48.858;10.128;2022-12-07T08:54:33;16.33;;;11.37;;
6376;SDS011;3221;48.858;10.128;2022-12-07T08:57:02;16.70;;;11.27;;
6376;SDS011;3221;48.858;10.128;2022-12-07T08:59:30;15.97;;;11.17;;
6376;SDS011;3221;48.858;10.128;2022-12-07T09:01:59;16.53;;;11.73;;
6376;SDS011;3221;48.858;10.128;2022-12-07T09:04:26;17.40;;;11.23;;
6376;SDS011;3221;48.858;10.128;2022-12-07T09:06:54;14.33;;;10.67;;
6376;SDS011;3221;48.858;10.128;2022-12-07T09:09:21;16.70;;;10.60;;
6376;SDS011;3221;48.858;10.128;2022-12-07T09:11:48;15.27;;;10.00;;
6376;SDS011;3221;48.858;10.128;2022-12-07T09:14:15;17.13;;;9.97;;
6376;SDS011;3221;48.858;10.128;2022-12-07T09:16:42;14.60;;;9.87;;
6376;SDS011;3221;48.858;10.128;2022-12-07T09:19:08;14.77;;;10.03;;
6376;SDS011;3221;48.858;10.128;2022-12-07T09:21:35;15.73;;;10.27;;
6376;SDS011;3221;48.858;10.128;2022-12-07T09:24:02;14.90;;;10.20;;
6376;SDS011;3221;48.858;10.128;2022-12-07T09:26:29;14.30;;;10.03;;
6376;SDS011;3221;48.858;10.128;2022-12-07T09:28:56;14.90;;;9.60;;
6376;SDS011;3221;48.858;10.128;2022-12-07T09:31:23;14.57;;;9.77;;
6376;SDS011;3221;48.858;10.128;2022-12-07T09:33:58;13.20;;;9.10;;
6376;SDS011;3221;48.858;10.128;2022-12-07T09:36:27;15.87;;;10.53;;
6376;SDS011;3221;48.858;10.128;2022-12-07T09:38:54;13.37;;;9.17;;
6376;SDS011;3221;48.858;10.128;2022-12-07T09:41:22;11.60;;;8.93;;
6376;SDS011;3221;48.858;10.128;2022-12-07T09:43:50;12.10;;;8.97;;
6376;SDS011;3221;48.858;10.128;2022-12-07T09:46:18;12.07;;;8.47;;
6376;SDS011;3221;48.858;10.128;2022-12-07T09:48:47;12.13;;;8.37;;
6376;SDS011;3221;48.858;10.128;2022-12-07T09:51:17;12.40;;;8.73;;
6376;SDS011;3221;48.858;10.128;2022-12-07T09:53:50;12.97;;;8.53;;
6376;SDS011;3221;48.858;10.128;2022-12-07T09:56:19;13.03;;;8.20;;
6376;SDS011;3221;48.858;10.128;2022-12-07T09:58:47;12.27;;;8.40;;
6376;SDS011;3221;48.858;10.128;2022-12-07T10:01:16;12.03;;;8.77;;
6376;SDS011;3221;48.858;10.128;2022-12-07T10:03:54;12.00;;;8.73;;
6376;SDS011;3221;48.858;10.128;2022-12-07T10:06:27;11.90;;;8.17;;
6376;SDS011;3221;48.858;10.128;2022-12-07T10:08:53;13.33;;;9.33;;
6376;SDS011;3221;48.858;10.128;2022-12-07T10:11:20;12.93;;;8.53;;
6376;SDS011;3221;48.858;10.128;2022-12-07T10:13:48;13.57;;;9.60;;
6376;SDS011;3221;48.858;10.128;2022-12-07T10:16:35;13.47;;;9.40;;
6376;SDS011;3221;48.858;10.128;2022-12-07T10:19:18;14.27;;;9.57;;
6376;SDS011;3221;48.858;10.128;2022-12-07T10:24:37;14.30;;;9.50;;
6376;SDS011;3221;48.858;10.128;2022-12-07T10:27:17;13.67;;;9.37;;
6376;SDS011;3221;48.858;10.128;2022-12-07T10:29:52;14.00;;;10.03;;
6376;SDS011;3221;48.858;10.128;2022-12-07T10:34:46;17.20;;;11.60;;
6376;SDS011;3221;48.858;10.128;2022-12-07T10:37:27;16.87;;;11.40;;
6376;SDS011;3221;48.858;10.128;2022-12-07T10:39:56;15.47;;;10.87;;
6376;SDS011;3221;48.858;10.128;2022-12-07T10:42:28;16.97;;;11.40;;
6376;SDS011;3221;48.858;10.128;2022-12-07T10:45:12;14.63;;;10.37;;
6376;SDS011;3221;48.858;10.128;2022-12-07T11:18:31;15.27;;;10.27;;
6376;SDS011;3221;48.858;10.128;2022-12-07T11:21:13;15.47;;;10.07;;
6376;SDS011;3221;48.858;10.128;2022-12-07T11:24:01;14.40;;;9.60;;
6376;SDS011;3221;48.858;10.128;2022-12-07T11:38:33;13.27;;;8.37;;
6376;SDS011;3221;48.858;10.128;2022-12-07T11:41:10;13.87;;;9.30;;
6376;SDS011;3221;48.858;10.128;2022-12-07T11:46:39;12.27;;;9.10;;
6376;SDS011;3221;48.858;10.128;2022-12-07T11:49:09;12.23;;;8.87;;
6376;SDS011;3221;48.858;10.128;2022-12-07T11:51:45;12.63;;;8.83;;
6376;SDS011;3221;48.858;10.128;2022-12-07T11:54:23;12.63;;;8.93;;
6376;SDS011;3221;48.858;10.128;2022-12-07T11:56:59;13.20;;;8.70;;
6376;SDS011;3221;48.858;10.128;2022-12-07T11:59:38;11.17;;;8.60;;
6376;SDS011;3221;48.858;10.128;2022-12-07T12:02:15;12.73;;;8.57;;
6376;SDS011;3221;48.858;10.128;2022-12-07T12:04:55;12.80;;;9.27;;
6376;SDS011;3221;48.858;10.128;2022-12-07T12:07:28;13.53;;;8.53;;
6376;SDS011;3221;48.858;10.128;2022-12-07T12:10:17;14.40;;;9.33;;
6376;SDS011;3221;48.858;10.128;2022-12-07T12:13:07;11.53;;;8.43;;
6376;SDS011;3221;48.858;10.128;2022-12-07T12:22:18;13.60;;;9.00;;
6376;SDS011;3221;48.858;10.128;2022-12-07T12:24:51;11.67;;;8.80;;
6376;SDS011;3221;48.858;10.128;2022-12-07T12:27:25;12.43;;;8.33;;
6376;SDS011;3221;48.858;10.128;2022-12-07T12:29:57;11.10;;;8.20;;
6376;SDS011;3221;48.858;10.128;2022-12-07T12:46:50;13.83;;;8.37;;
6376;SDS011;3221;48.858;10.128;2022-12-07T12:51:47;13.23;;;9.17;;
6376;SDS011;3221;48.858;10.128;2022-12-07T12:54:35;13.63;;;8.93;;
6376;SDS011;3221;48.858;10.128;2022-12-07T13:04:59;11.47;;;8.40;;
6376;SDS011;3221;48.858;10.128;2022-12-07T13:34:27;28.43;;;15.80;;
6376;SDS011;3221;48.858;10.128;2022-12-07T13:37:09;20.87;;;13.03;;
6376;SDS011;3221;48.858;10.128;2022-12-07T13:39:44;18.80;;;11.63;;
6376;SDS011;3221;48.858;10.128;2022-12-07T13:44:50;17.47;;;11.27;;
6376;SDS011;3221;48.858;10.128;2022-12-07T13:47:18;20.43;;;12.67;;
6376;SDS011;3221;48.858;10.128;2022-12-07T13:49:53;22.57;;;12.93;;
6376;SDS011;3221;48.858;10.128;2022-12-07T13:52:28;27.20;;;15.63;;
6376;SDS011;3221;48.858;10.128;2022-12-07T13:57:33;34.83;;;19.77;;
6376;SDS011;3221;48.858;10.128;2022-12-07T14:00:03;26.80;;;15.77;;
6376;SDS011;3221;48.858;10.128;2022-12-07T14:02:53;28.50;;;16.37;;
6376;SDS011;3221;48.858;10.128;2022-12-07T14:07:57;30.83;;;16.87;;
6376;SDS011;3221;48.858;10.128;2022-12-07T14:12:57;31.60;;;17.50;;
6376;SDS011;3221;48.858;10.128;2022-12-07T14:15:28;25.43;;;14.73;;
6376;SDS011;3221;48.858;10.128;2022-12-07T14:17:58;19.60;;;12.57;;
6376;SDS011;3221;48.858;10.128;2022-12-07T14:20:33;21.13;;;13.63;;
6376;SDS011;3221;48.858;10.128;2022-12-07T14:23:05;20.93;;;12.73;;
6376;SDS011;3221;48.858;10.128;2022-12-07T14:25:49;18.50;;;12.43;;
6376;SDS011;3221;48.858;10.128;2022-12-07T14:28:51;17.03;;;11.10;;
6376;SDS011;3221;48.858;10.128;2022-12-07T14:31:12;14.97;;;10.60;;
6376;SDS011;3221;48.858;10.128;2022-12-07T14:33:58;13.57;;;9.43;;
6376;SDS011;3221;48.858;10.128;2022-12-07T14:36:26;12.53;;;9.00;;
6376;SDS011;3221;48.858;10.128;2022-12-07T14:38:52;12.57;;;8.40;;
6376;SDS011;3221;48.858;10.128;2022-12-07T14:41:22;14.07;;;8.70;;
6376;SDS011;3221;48.858;10.128;2022-12-07T14:44:10;17.80;;;10.03;;
6376;SDS011;3221;48.858;10.128;2022-12-07T14:46:58;14.07;;;9.10;;
6376;SDS011;3221;48.858;10.128;2022-12-07T14:49:45;15.77;;;10.57;;
6376;SDS011;3221;48.858;10.128;2022-12-07T14:52:13;17.03;;;10.43;;
6376;SDS011;3221;48.858;10.128;2022-12-07T14:55:29;15.77;;;10.40;;
6376;SDS011;3221;48.858;10.128;2022-12-07T14:57:57;16.63;;;10.67;;
6376;SDS011;3221;48.858;10.128;2022-12-07T15:00:26;18.50;;;12.33;;
6376;SDS011;3221;48.858;10.128;2022-12-07T15:02:54;21.70;;;13.77;;
6376;SDS011;3221;48.858;10.128;2022-12-07T15:05:21;19.13;;;12.77;;
6376;SDS011;3221;48.858;10.128;2022-12-07T15:07:49;21.33;;;13.20;;
6376;SDS011;3221;48.858;10.128;2022-12-07T15:10:19;20.13;;;13.63;;
6376;SDS011;3221;48.858;10.128;2022-12-07T15:12:50;22.23;;;13.87;;
6376;SDS011;3221;48.858;10.128;2022-12-07T15:15:17;22.10;;;14.53;;
6376;SDS011;3221;48.858;10.128;2022-12-07T15:17:44;24.63;;;14.73;;
6376;SDS011;3221;48.858;10.128;2022-12-07T15:20:12;23.70;;;14.70;;
6376;SDS011;3221;48.858;10.128;2022-12-07T15:22:40;20.23;;;13.87;;
6376;SDS011;3221;48.858;10.128;2022-12-07T15:25:08;19.10;;;12.93;;
6376;SDS011;3221;48.858;10.128;2022-12-07T15:27:38;18.33;;;12.97;;
6376;SDS011;3221;48.858;10.128;2022-12-07T15:30:05;17.93;;;11.77;;
6376;SDS011;3221;48.858;10.128;2022-12-07T15:32:33;16.83;;;11.27;;
6376;SDS011;3221;48.858;10.128;2022-12-07T15:35:00;14.70;;;11.17;;
6376;SDS011;3221;48.858;10.128;2022-12-07T15:37:27;18.60;;;13.07;;
6376;SDS011;3221;48.858;10.128;2022-12-07T15:39:54;20.30;;;14.00;;
6376;SDS011;3221;48.858;10.128;2022-12-07T15:42:21;20.27;;;13.80;;
6376;SDS011;3221;48.858;10.128;2022-12-07T15:44:48;16.80;;;11.93;;
6376;SDS011;3221;48.858;10.128;2022-12-07T15:47:31;16.63;;;12.03;;
6376;SDS011;3221;48.858;10.128;2022-12-07T15:50:21;16.20;;;11.03;;
6376;SDS011;3221;48.858;10.128;2022-12-07T15:52:48;14.10;;;11.07;;
6376;SDS011;3221;48.858;10.128;2022-12-07T15:55:15;15.70;;;11.17;;
6376;SDS011;3221;48.858;10.128;2022-12-07T15:57:42;16.83;;;12.60;;
6376;SDS011;3221;48.858;10.128;2022-12-07T16:00:09;17.50;;;12.80;;
6376;SDS011;3221;48.858;10.128;2022-12-07T16:02:37;17.77;;;12.63;;
6376;SDS011;3221;48.858;10.128;2022-12-07T16:05:05;17.27;;;12.17;;
6376;SDS011;3221;48.858;10.128;2022-12-07T16:07:32;17.57;;;12.60;;
6376;SDS011;3221;48.858;10.128;2022-12-07T16:09:59;15.30;;;12.07;;
6376;SDS011;3221;48.858;10.128;2022-12-07T16:12:26;15.50;;;12.50;;
6376;SDS011;3221;48.858;10.128;2022-12-07T16:14:53;14.97;;;12.00;;
6376;SDS011;3221;48.858;10.128;2022-12-07T16:17:20;16.37;;;11.73;;
6376;SDS011;3221;48.858;10.128;2022-12-07T16:19:46;14.73;;;11.17;;
6376;SDS011;3221;48.858;10.128;2022-12-07T16:22:13;15.43;;;11.03;;
6376;SDS011;3221;48.858;10.128;2022-12-07T16:24:40;14.23;;;10.50;;
6376;SDS011;3221;48.858;10.128;2022-12-07T16:27:07;13.30;;;10.37;;
6376;SDS011;3221;48.858;10.128;2022-12-07T16:29:34;14.23;;;10.50;;
6376;SDS011;3221;48.858;10.128;2022-12-07T16:32:01;13.33;;;10.13;;
6376;SDS011;3221;48.858;10.128;2022-12-07T16:34:28;13.17;;;10.03;;
6376;SDS011;3221;48.858;10.128;2022-12-07T16:36:54;12.83;;;10.03;;
6376;SDS011;3221;48.858;10.128;2022-12-07T16:39:31;12.67;;;10.00;;
6376;SDS011;3221;48.858;10.128;2022-12-07T16:41:59;12.30;;;9.87;;
6376;SDS011;3221;48.858;10.128;2022-12-07T16:44:26;13.40;;;9.87;;
6376;SDS011;3221;48.858;10.128;2022-12-07T16:46:53;16.47;;;9.60;;
6376;SDS011;3221;48.858;10.128;2022-12-07T16:49:20;14.37;;;9.93;;
6376;SDS011;3221;48.858;10.128;2022-12-07T16:51:49;13.80;;;10.37;;
6376;SDS011;3221;48.858;10.128;2022-12-07T16:54:36;12.07;;;9.53;;
6376;SDS011;3221;48.858;10.128;2022-12-07T16:57:02;11.83;;;9.97;;
6376;SDS011;3221;48.858;10.128;2022-12-07T16:59:29;13.13;;;10.17;;
6376;SDS011;3221;48.858;10.128;2022-12-07T17:01:56;13.60;;;10.03;;
6376;SDS011;3221;48.858;10.128;2022-12-07T17:04:23;14.40;;;10.07;;
6376;SDS011;3221;48.858;10.128;2022-12-07T17:06:50;13.53;;;9.63;;
6376;SDS011;3221;48.858;10.128;2022-12-07T17:09:17;13.67;;;10.00;;
6376;SDS011;3221;48.858;10.128;2022-12-07T17:11:47;12.07;;;9.80;;
6376;SDS011;3221;48.858;10.128;2022-12-07T17:14:14;14.37;;;10.30;;
6376;SDS011;3221;48.858;10.128;2022-12-07T17:17:00;13.70;;;10.37;;
6376;SDS011;3221;48.858;10.128;2022-12-07T17:19:27;13.57;;;10.27;;
6376;SDS011;3221;48.858;10.128;2022-12-07T17:21:54;14.00;;;9.97;;
6376;SDS011;3221;48.858;10.128;2022-12-07T17:24:21;15.63;;;10.77;;
6376;SDS011;3221;48.858;10.128;2022-12-07T17:26:48;17.00;;;11.17;;
6376;SDS011;3221;48.858;10.128;2022-12-07T17:29:16;15.67;;;11.60;;